Time;durP1;ratioP1;P1;durP2;ratioP2;P2;SDS_P1;SDS_P2;PMS_P1;PMS_P2;Temp;Humidity;BMP_temperature;BMP_pressure;BME280_temperature;BME280_humidity;BME280_pressure;Samples;Min_cycle;Max_cycle;Signal;HPM_P1;HPM_P2
2023/07/08 00:01:57;;;;;;;5.70;2.38;;;18.10;99.90;;;;;;4215875;28;20046;-88
2023/07/08 00:03:59;;;;;;;5.85;3.28;;;18.00;99.90;;;;;;4218327;28;20096;-87
2023/07/08 00:06:00;;;;;;;6.25;2.38;;;18.00;99.90;;;;;;4215802;28;20074;-88
2023/07/08 00:08:01;;;;;;;5.95;2.45;;;18.00;99.90;;;;;;4218098;28;20052;-87
2023/07/08 00:10:01;;;;;;;6.32;2.78;;;17.90;99.90;;;;;;4217258;28;20044;-87
2023/07/08 00:12:08;;;;;;;5.75;2.85;;;18.10;99.90;;;;;;4200148;28;20413;-87
2023/07/08 00:14:09;;;;;;;4.85;2.40;;;17.90;99.90;;;;;;4219222;28;20040;-87
2023/07/08 00:16:16;;;;;;;5.22;3.03;;;17.90;99.90;;;;;;4198971;28;20082;-86
2023/07/08 00:18:18;;;;;;;4.47;2.20;;;17.90;99.90;;;;;;4217549;28;20076;-87
2023/07/08 00:20:43;;;;;;;10.00;2.55;;;17.80;99.90;;;;;;4206888;28;20094;-87
2023/07/08 00:22:46;;;;;;;7.30;2.88;;;17.80;99.90;;;;;;4197943;28;20053;-87
2023/07/08 00:24:47;;;;;;;5.03;2.85;;;17.80;99.90;;;;;;4211859;28;20044;-87
2023/07/08 00:26:48;;;;;;;8.88;2.83;;;17.70;99.90;;;;;;4200097;28;20182;-87
2023/07/08 00:28:49;;;;;;;6.38;2.67;;;17.70;99.90;;;;;;4217978;28;20484;-86
2023/07/08 00:30:50;;;;;;;7.20;2.65;;;17.70;99.90;;;;;;4218625;28;20048;-85
2023/07/08 00:32:54;;;;;;;10.63;3.90;;;17.60;99.90;;;;;;4215609;28;20384;-87
2023/07/08 00:34:55;;;;;;;5.47;2.63;;;17.60;99.90;;;;;;4217300;28;20036;-86
2023/07/08 00:36:56;;;;;;;7.57;3.08;;;17.60;99.90;;;;;;4215808;28;20050;-86
2023/07/08 00:38:57;;;;;;;6.38;3.30;;;17.50;99.90;;;;;;4218020;28;20047;-87
2023/07/08 00:41:06;;;;;;;4.45;2.72;;;17.50;99.90;;;;;;4215591;28;20040;-86
2023/07/08 00:43:09;;;;;;;7.40;2.85;;;17.40;99.90;;;;;;4233208;28;20044;-86
2023/07/08 00:45:45;;;;;;;5.05;2.50;;;17.40;99.90;;;;;;4215827;28;20431;-86
2023/07/08 00:47:50;;;;;;;8.18;3.10;;;17.40;99.90;;;;;;4196932;28;20534;-88
2023/07/08 00:49:57;;;;;;;6.10;2.80;;;17.40;99.90;;;;;;4231670;28;20424;-88
2023/07/08 00:52:20;;;;;;;7.90;2.85;;;17.40;99.90;;;;;;4217688;28;20048;-86
2023/07/08 00:54:21;;;;;;;4.68;2.63;;;17.30;99.90;;;;;;4216974;28;20036;-86
2023/07/08 00:56:38;;;;;;;4.88;3.13;;;17.30;99.90;;;;;;4216628;28;20173;-87
2023/07/08 00:59:07;;;;;;;4.63;3.10;;;17.20;99.90;;;;;;4213762;28;20122;-87
2023/07/08 01:01:09;;;;;;;6.00;2.78;;;17.20;99.90;;;;;;4208244;28;20056;-87
2023/07/08 01:03:11;;;;;;;7.50;2.70;;;17.20;99.90;;;;;;4215729;28;20048;-87
2023/07/08 01:05:17;;;;;;;9.35;2.90;;;17.20;99.90;;;;;;4213555;28;20154;-86
2023/07/08 01:07:21;;;;;;;5.22;2.95;;;17.10;99.90;;;;;;4218384;28;20040;-87
2023/07/08 01:09:22;;;;;;;6.80;2.85;;;17.10;99.90;;;;;;4232447;28;20047;-87
2023/07/08 01:11:22;;;;;;;7.55;2.72;;;17.10;99.90;;;;;;4215450;28;20052;-87
2023/07/08 01:13:24;;;;;;;8.05;3.13;;;17.00;99.90;;;;;;4233429;28;20093;-86
2023/07/08 01:15:31;;;;;;;5.20;3.05;;;17.10;99.90;;;;;;4218079;28;20048;-87
2023/07/08 01:17:32;;;;;;;4.13;2.53;;;17.00;99.90;;;;;;4218113;28;20068;-86
2023/07/08 01:19:33;;;;;;;3.95;2.33;;;17.00;99.90;;;;;;4215654;28;20046;-87
2023/07/08 01:21:40;;;;;;;6.55;2.78;;;17.00;99.90;;;;;;4200130;28;20059;-87
2023/07/08 01:23:41;;;;;;;7.30;3.80;;;17.00;99.90;;;;;;4200924;28;20405;-86
2023/07/08 01:25:44;;;;;;;6.25;2.95;;;17.00;99.90;;;;;;4200699;28;20047;-87
2023/07/08 01:27:49;;;;;;;4.32;2.88;;;16.90;99.90;;;;;;4216682;28;20121;-87
2023/07/08 01:29:50;;;;;;;9.27;3.45;;;16.90;99.90;;;;;;4201779;28;20728;-87
2023/07/08 01:31:51;;;;;;;4.60;2.55;;;16.90;99.90;;;;;;4217168;28;20567;-87
2023/07/08 01:33:52;;;;;;;6.68;2.95;;;16.90;99.90;;;;;;4205581;28;20047;-87
2023/07/08 01:35:55;;;;;;;4.78;3.10;;;16.90;99.90;;;;;;4200233;28;20091;-87
2023/07/08 01:38:02;;;;;;;3.67;2.67;;;16.90;99.90;;;;;;4215618;28;20373;-86
2023/07/08 01:40:28;;;;;;;5.18;3.13;;;16.90;99.90;;;;;;4217092;28;20141;-86
2023/07/08 01:42:29;;;;;;;5.53;2.63;;;16.90;99.90;;;;;;4216641;28;20036;-86
2023/07/08 01:44:35;;;;;;;8.82;3.03;;;16.80;99.90;;;;;;4217351;28;20040;-85
2023/07/08 01:46:36;;;;;;;7.20;2.85;;;16.80;99.90;;;;;;4211313;28;20045;-86
2023/07/08 01:48:41;;;;;;;4.25;2.60;;;16.80;99.90;;;;;;4190656;28;20032;-86
2023/07/08 01:51:04;;;;;;;6.93;2.72;;;16.80;99.90;;;;;;4212087;28;20101;-86
2023/07/08 01:53:11;;;;;;;7.15;3.53;;;16.70;99.90;;;;;;4210931;28;20447;-86
2023/07/08 01:55:12;;;;;;;7.28;3.72;;;16.70;99.90;;;;;;4214807;28;20055;-86
2023/07/08 01:57:16;;;;;;;7.55;2.78;;;16.70;99.90;;;;;;4212443;28;20459;-86
2023/07/08 01:59:17;;;;;;;4.40;2.88;;;16.70;99.90;;;;;;4211259;28;20530;-86
2023/07/08 02:01:18;;;;;;;8.95;2.80;;;16.70;99.90;;;;;;4213481;28;20119;-86
2023/07/08 02:03:19;;;;;;;7.28;2.85;;;16.70;99.90;;;;;;4214154;28;20036;-87
2023/07/08 02:05:23;;;;;;;5.78;2.72;;;16.70;99.90;;;;;;4213758;28;20032;-87
2023/07/08 02:07:24;;;;;;;8.98;3.22;;;16.70;99.90;;;;;;4199121;28;20056;-86
2023/07/08 02:09:26;;;;;;;5.47;2.83;;;16.70;99.90;;;;;;4197963;28;20048;-86
2023/07/08 02:11:26;;;;;;;4.82;2.78;;;16.70;99.90;;;;;;4199110;28;20055;-86
2023/07/08 02:13:27;;;;;;;6.45;3.10;;;16.70;99.90;;;;;;4215638;28;20044;-87
2023/07/08 02:15:28;;;;;;;4.63;3.08;;;16.60;99.90;;;;;;4214119;28;20071;-87
2023/07/08 02:17:29;;;;;;;5.05;2.90;;;16.60;99.90;;;;;;4215035;28;20040;-87
2023/07/08 02:19:29;;;;;;;5.65;3.17;;;16.60;99.90;;;;;;4207947;28;20044;-87
2023/07/08 02:21:30;;;;;;;5.97;2.75;;;16.60;99.90;;;;;;4215108;28;20047;-87
2023/07/08 02:23:31;;;;;;;6.70;2.88;;;16.60;99.90;;;;;;4215113;28;20427;-87
2023/07/08 02:25:37;;;;;;;13.00;3.25;;;16.60;99.90;;;;;;4214798;28;20044;-87
2023/07/08 02:27:38;;;;;;;6.85;3.17;;;16.60;99.90;;;;;;4198397;28;20473;-87
2023/07/08 02:29:39;;;;;;;6.32;3.05;;;16.60;99.90;;;;;;4215983;28;20032;-87
2023/07/08 02:31:40;;;;;;;6.05;3.00;;;16.60;99.90;;;;;;4214705;28;20070;-87
2023/07/08 02:33:42;;;;;;;9.43;3.58;;;16.50;99.90;;;;;;4202895;28;20052;-87
2023/07/08 02:35:44;;;;;;;6.68;2.92;;;16.50;99.90;;;;;;4215096;28;20036;-87
2023/07/08 02:37:45;;;;;;;7.40;3.30;;;16.50;99.90;;;;;;4205123;28;20416;-87
2023/07/08 02:39:46;;;;;;;7.40;2.97;;;16.50;99.90;;;;;;4216408;28;20031;-87
2023/07/08 02:41:48;;;;;;;6.05;2.85;;;16.40;99.90;;;;;;4215628;28;20054;-87
2023/07/08 02:43:49;;;;;;;11.65;3.45;;;16.50;99.90;;;;;;4214880;28;20545;-87
2023/07/08 02:45:51;;;;;;;5.40;3.45;;;16.50;99.90;;;;;;4209240;28;20123;-87
2023/07/08 02:47:51;;;;;;;6.82;3.20;;;16.50;99.90;;;;;;4216070;28;20411;-87
2023/07/08 02:49:54;;;;;;;8.88;3.50;;;16.50;99.90;;;;;;4207727;28;20052;-86
2023/07/08 02:51:57;;;;;;;6.03;2.97;;;16.50;99.90;;;;;;4214245;28;20054;-86
2023/07/08 02:53:59;;;;;;;11.57;3.97;;;16.60;99.90;;;;;;4213275;28;20043;-86
2023/07/08 02:56:00;;;;;;;4.55;2.92;;;16.40;99.90;;;;;;4215843;28;20059;-86
2023/07/08 02:58:01;;;;;;;5.65;3.00;;;16.40;99.90;;;;;;4212094;28;20052;-86
2023/07/08 03:00:04;;;;;;;5.50;2.88;;;16.40;99.90;;;;;;4202148;28;20083;-87
2023/07/08 03:02:06;;;;;;;5.93;3.05;;;16.40;99.90;;;;;;4195509;28;20051;-86
2023/07/08 03:04:12;;;;;;;6.30;3.05;;;16.40;99.90;;;;;;4202315;28;20492;-86
2023/07/08 03:06:13;;;;;;;6.88;2.97;;;16.40;99.90;;;;;;4214275;28;20443;-86
2023/07/08 03:08:14;;;;;;;8.80;4.78;;;16.40;99.90;;;;;;4198049;28;20048;-86
2023/07/08 03:10:15;;;;;;;5.90;3.15;;;16.40;99.90;;;;;;4214291;28;20118;-86
2023/07/08 03:12:17;;;;;;;8.88;3.63;;;16.40;99.90;;;;;;4198044;28;20128;-87
2023/07/08 03:14:17;;;;;;;8.85;3.58;;;16.40;99.90;;;;;;4215129;28;21015;-87
2023/07/08 03:16:18;;;;;;;5.78;3.40;;;16.40;99.90;;;;;;4209339;28;20069;-87
2023/07/08 03:18:21;;;;;;;6.93;3.17;;;16.40;99.90;;;;;;4197442;28;20056;-86
2023/07/08 03:20:22;;;;;;;10.63;4.38;;;16.40;99.90;;;;;;4214101;28;20075;-86
2023/07/08 03:22:22;;;;;;;5.43;3.30;;;16.40;99.90;;;;;;4214245;28;20482;-86
2023/07/08 03:24:23;;;;;;;8.77;3.65;;;16.40;99.90;;;;;;4212311;28;20119;-86
2023/07/08 03:26:26;;;;;;;7.80;3.50;;;16.40;99.90;;;;;;4215950;28;20092;-86
2023/07/08 03:28:29;;;;;;;9.38;3.60;;;16.40;99.90;;;;;;4208996;28;20507;-86
2023/07/08 03:30:30;;;;;;;6.30;3.67;;;16.30;99.90;;;;;;4206315;28;20036;-86
2023/07/08 03:32:31;;;;;;;7.65;3.60;;;16.30;99.90;;;;;;4213452;28;20097;-86
2023/07/08 03:34:31;;;;;;;8.05;3.53;;;16.30;99.90;;;;;;4215068;28;20044;-87
2023/07/08 03:36:32;;;;;;;10.10;3.80;;;16.30;99.90;;;;;;4215116;28;20040;-87
2023/07/08 03:38:33;;;;;;;5.82;3.60;;;16.30;99.90;;;;;;4218162;28;20464;-86
2023/07/08 03:40:34;;;;;;;7.47;3.00;;;16.30;99.90;;;;;;4213213;28;20377;-86
2023/07/08 03:42:35;;;;;;;7.28;3.58;;;16.30;99.90;;;;;;4207099;28;20064;-86
2023/07/08 03:44:35;;;;;;;6.38;3.80;;;16.30;99.90;;;;;;4216008;28;20036;-86
2023/07/08 03:46:37;;;;;;;7.88;4.20;;;16.30;99.90;;;;;;4214941;28;20051;-85
2023/07/08 03:48:38;;;;;;;8.32;3.47;;;16.30;99.90;;;;;;4216940;28;20040;-86
2023/07/08 03:50:39;;;;;;;6.47;3.17;;;16.30;99.90;;;;;;4215491;28;20044;-86
2023/07/08 03:52:40;;;;;;;8.07;3.72;;;16.30;99.90;;;;;;4231526;28;20039;-85
2023/07/08 03:54:44;;;;;;;10.18;3.55;;;16.30;99.90;;;;;;4212296;28;20435;-87
2023/07/08 03:56:45;;;;;;;8.07;3.97;;;16.30;99.90;;;;;;4230492;28;20056;-85
2023/07/08 03:58:46;;;;;;;8.20;3.65;;;16.40;99.90;;;;;;4208245;28;20039;-86
2023/07/08 04:00:47;;;;;;;6.28;3.63;;;16.40;99.90;;;;;;4208244;28;20056;-86
2023/07/08 04:02:48;;;;;;;7.13;3.55;;;16.40;99.90;;;;;;4198653;28;20448;-86
2023/07/08 04:04:50;;;;;;;8.93;3.78;;;16.40;99.90;;;;;;4212109;28;20047;-86
2023/07/08 04:06:51;;;;;;;10.73;4.30;;;16.40;99.90;;;;;;4208161;28;20059;-86
2023/07/08 04:08:52;;;;;;;6.80;3.92;;;16.40;99.90;;;;;;4199265;28;20060;-86
2023/07/08 04:10:53;;;;;;;4.93;3.40;;;16.40;99.90;;;;;;4208527;28;20119;-86
2023/07/08 04:12:55;;;;;;;6.15;3.60;;;16.60;99.90;;;;;;4213065;28;20396;-86
2023/07/08 04:14:55;;;;;;;6.28;4.00;;;16.40;99.90;;;;;;4195905;28;20044;-87
2023/07/08 04:16:58;;;;;;;5.35;3.28;;;16.40;99.90;;;;;;4213108;28;20052;-86
2023/07/08 04:18:59;;;;;;;8.30;3.50;;;16.50;99.90;;;;;;4212348;28;20462;-87
2023/07/08 04:21:00;;;;;;;6.45;4.20;;;16.50;99.90;;;;;;4184953;28;20048;-86
2023/07/08 04:23:00;;;;;;;6.00;3.58;;;16.50;99.90;;;;;;4208824;28;20047;-86
2023/07/08 04:25:05;;;;;;;6.85;3.97;;;16.50;99.90;;;;;;4207219;28;20045;-86
2023/07/08 04:27:15;;;;;;;7.57;3.45;;;16.50;99.90;;;;;;4213795;28;20105;-86
2023/07/08 04:29:20;;;;;;;6.57;3.95;;;16.50;99.90;;;;;;4208257;28;20115;-86
2023/07/08 04:31:21;;;;;;;6.82;3.50;;;16.50;99.90;;;;;;4200245;28;20136;-86
2023/07/08 04:33:22;;;;;;;6.28;3.55;;;16.50;99.90;;;;;;4208938;28;20044;-86
2023/07/08 04:35:23;;;;;;;9.00;3.45;;;16.60;99.90;;;;;;4208669;28;20040;-86
2023/07/08 04:37:23;;;;;;;10.88;3.97;;;16.60;99.90;;;;;;4211365;28;20101;-85
2023/07/08 04:39:24;;;;;;;9.98;4.00;;;16.60;99.90;;;;;;4214978;28;20052;-87
2023/07/08 04:41:28;;;;;;;7.03;3.90;;;16.20;99.90;;;;;;4217562;28;20040;-86
2023/07/08 04:43:29;;;;;;;6.40;3.65;;;16.70;99.90;;;;;;4197746;28;20451;-86
2023/07/08 04:45:30;;;;;;;9.95;4.13;;;16.70;99.90;;;;;;4217074;28;20512;-85
2023/07/08 04:47:33;;;;;;;8.85;3.70;;;16.50;99.90;;;;;;4231211;28;20040;-86
2023/07/08 04:49:33;;;;;;;7.20;3.67;;;16.70;99.90;;;;;;4215965;28;20040;-86
2023/07/08 04:51:34;;;;;;;10.82;3.83;;;16.70;99.90;;;;;;4197671;28;20097;-85
2023/07/08 04:53:35;;;;;;;7.60;3.72;;;16.70;99.90;;;;;;4215619;28;20048;-86
2023/07/08 04:55:39;;;;;;;6.00;4.20;;;16.80;99.90;;;;;;4198491;28;20139;-86
2023/07/08 04:57:40;;;;;;;6.43;3.85;;;16.80;99.90;;;;;;4215785;28;20051;-85
2023/07/08 04:59:40;;;;;;;6.55;4.00;;;16.80;99.90;;;;;;4208964;28;20396;-86
2023/07/08 05:01:42;;;;;;;10.20;3.90;;;16.90;99.90;;;;;;4217269;28;20040;-86
2023/07/08 05:03:42;;;;;;;10.70;4.38;;;16.90;99.90;;;;;;4207852;28;20044;-86
2023/07/08 05:05:43;;;;;;;13.15;3.88;;;16.90;99.90;;;;;;4217029;28;20067;-87
2023/07/08 05:07:44;;;;;;;5.97;3.63;;;16.90;99.90;;;;;;4198445;28;20060;-86
2023/07/08 05:09:45;;;;;;;9.50;4.13;;;17.00;99.90;;;;;;4217757;28;20488;-86
2023/07/08 05:11:46;;;;;;;6.35;3.75;;;17.00;99.90;;;;;;4194760;28;20041;-86
2023/07/08 05:13:47;;;;;;;8.07;3.70;;;17.10;99.90;;;;;;4219379;28;20150;-86
2023/07/08 05:15:48;;;;;;;10.10;4.15;;;17.10;99.90;;;;;;4215647;28;20476;-86
2023/07/08 05:17:51;;;;;;;6.70;3.92;;;17.20;99.90;;;;;;4217148;28;20523;-87
2023/07/08 05:19:52;;;;;;;7.65;4.15;;;17.20;99.90;;;;;;4199034;28;20036;-86
2023/07/08 05:21:53;;;;;;;8.32;3.70;;;17.30;99.90;;;;;;4205859;28;20068;-86
2023/07/08 05:23:54;;;;;;;7.05;3.65;;;17.30;99.90;;;;;;4199434;28;20044;-86
2023/07/08 05:25:58;;;;;;;6.32;3.42;;;17.40;99.90;;;;;;4197978;28;20127;-86
2023/07/08 05:27:59;;;;;;;5.85;3.90;;;17.50;99.90;;;;;;4216655;28;20408;-86
2023/07/08 05:30:02;;;;;;;6.43;3.70;;;17.50;99.90;;;;;;4196485;28;20088;-87
2023/07/08 05:32:03;;;;;;;4.97;3.22;;;17.60;99.90;;;;;;4199795;28;20044;-87
2023/07/08 05:34:03;;;;;;;6.40;3.30;;;17.60;99.90;;;;;;4212063;28;20056;-87
2023/07/08 05:36:04;;;;;;;5.47;3.35;;;17.70;99.90;;;;;;4198107;28;20045;-86
2023/07/08 05:38:05;;;;;;;5.82;3.15;;;17.70;99.90;;;;;;4215215;28;20052;-87
2023/07/08 05:40:08;;;;;;;9.25;3.30;;;17.80;99.90;;;;;;4198424;28;20101;-86
2023/07/08 05:42:09;;;;;;;6.03;3.38;;;17.90;99.90;;;;;;4217224;28;20044;-87
2023/07/08 05:44:09;;;;;;;8.65;3.60;;;18.00;99.90;;;;;;4215624;28;20079;-86
2023/07/08 05:46:10;;;;;;;7.95;3.67;;;18.00;99.90;;;;;;4215042;28;20071;-86
2023/07/08 05:48:11;;;;;;;6.22;2.92;;;18.10;99.90;;;;;;4210429;28;20088;-86
2023/07/08 05:50:12;;;;;;;12.95;4.50;;;18.10;99.90;;;;;;4217521;28;20066;-87
2023/07/08 05:52:13;;;;;;;5.80;3.03;;;18.20;99.90;;;;;;4196933;28;20546;-86
2023/07/08 05:54:14;;;;;;;7.43;3.00;;;18.30;99.90;;;;;;4198303;28;20123;-86
2023/07/08 05:56:15;;;;;;;5.70;3.10;;;18.40;99.90;;;;;;4215261;28;20464;-86
2023/07/08 05:58:17;;;;;;;8.00;2.80;;;18.40;99.90;;;;;;4216025;28;20055;-86
2023/07/08 06:00:19;;;;;;;4.78;3.17;;;18.50;99.90;;;;;;4213730;28;20048;-86
2023/07/08 06:02:21;;;;;;;4.55;3.00;;;18.60;99.90;;;;;;4203627;28;20067;-86
2023/07/08 06:04:22;;;;;;;7.90;3.15;;;18.60;99.90;;;;;;4215218;28;20439;-87
2023/07/08 06:06:23;;;;;;;5.78;3.30;;;18.70;99.90;;;;;;4208214;28;20035;-86
2023/07/08 06:08:24;;;;;;;7.95;3.17;;;18.80;99.90;;;;;;4198906;28;20049;-86
2023/07/08 06:10:25;;;;;;;5.03;2.90;;;18.80;99.90;;;;;;4215500;28;20040;-87
2023/07/08 06:12:26;;;;;;;7.72;3.03;;;18.90;99.90;;;;;;4215992;28;20044;-87
2023/07/08 06:14:27;;;;;;;8.02;3.20;;;19.00;99.90;;;;;;4194447;28;20047;-86
2023/07/08 06:16:29;;;;;;;6.60;3.13;;;19.00;99.90;;;;;;4216610;28;20389;-86
2023/07/08 06:18:30;;;;;;;9.38;2.95;;;19.10;99.90;;;;;;4213107;28;20546;-86
2023/07/08 06:20:31;;;;;;;9.20;4.47;;;19.20;99.90;;;;;;4216526;28;20101;-86
2023/07/08 06:22:32;;;;;;;5.13;3.08;;;19.20;99.90;;;;;;4210568;28;20044;-86
2023/07/08 06:24:32;;;;;;;5.70;2.83;;;19.30;99.90;;;;;;4215608;28;20093;-87
2023/07/08 06:26:33;;;;;;;7.38;2.85;;;19.40;99.90;;;;;;4207037;28;20048;-87
2023/07/08 06:28:34;;;;;;;4.32;2.72;;;19.50;99.90;;;;;;4206424;28;20051;-86
2023/07/08 06:30:35;;;;;;;5.82;3.35;;;19.60;99.90;;;;;;4214638;28;20106;-86
2023/07/08 06:32:36;;;;;;;6.68;3.50;;;19.60;99.90;;;;;;4210666;28;20099;-87
2023/07/08 06:34:36;;;;;;;4.85;2.65;;;19.80;99.90;;;;;;4217565;28;20117;-88
2023/07/08 06:36:37;;;;;;;5.43;2.58;;;19.80;99.90;;;;;;4209388;28;20054;-87
2023/07/08 06:38:38;;;;;;;4.32;2.60;;;19.90;99.90;;;;;;4210531;28;20040;-88
2023/07/08 06:40:39;;;;;;;7.10;2.67;;;20.00;99.90;;;;;;4208014;28;20074;-87
2023/07/08 06:42:39;;;;;;;6.50;3.13;;;20.10;99.90;;;;;;4208860;28;20053;-87
2023/07/08 06:44:45;;;;;;;5.10;3.03;;;20.10;99.90;;;;;;4190722;28;20055;-88
2023/07/08 06:46:45;;;;;;;4.85;2.78;;;20.20;99.90;;;;;;4213675;28;20075;-88
2023/07/08 06:48:46;;;;;;;8.55;3.20;;;20.30;99.90;;;;;;4216601;28;20040;-89
2023/07/08 06:50:48;;;;;;;4.97;3.10;;;20.40;99.90;;;;;;4214814;28;20075;-89
2023/07/08 06:52:49;;;;;;;3.30;2.22;;;20.50;99.90;;;;;;4213699;28;20036;-88
2023/07/08 06:54:49;;;;;;;8.23;2.53;;;20.60;99.90;;;;;;4228827;28;20484;-88
2023/07/08 06:56:50;;;;;;;6.45;2.50;;;20.70;99.90;;;;;;4214692;28;20059;-89
2023/07/08 06:58:51;;;;;;;5.50;2.70;;;20.80;99.90;;;;;;4210116;28;20048;-90
2023/07/08 07:00:52;;;;;;;5.78;3.05;;;20.90;99.90;;;;;;4192327;28;20523;-89
2023/07/08 07:02:52;;;;;;;5.25;2.65;;;21.00;99.90;;;;;;4215346;28;20039;-89
2023/07/08 07:04:55;;;;;;;4.00;2.28;;;21.10;99.90;;;;;;4211061;28;20051;-89
2023/07/08 07:06:55;;;;;;;5.32;2.30;;;21.20;99.90;;;;;;4220067;28;20522;-88
2023/07/08 07:08:56;;;;;;;3.45;2.33;;;21.30;99.90;;;;;;4218317;28;20067;-88
2023/07/08 07:10:57;;;;;;;7.57;4.03;;;21.40;99.90;;;;;;4216360;28;20040;-88
2023/07/08 07:12:59;;;;;;;4.75;2.30;;;21.50;99.90;;;;;;4197108;28;20473;-88
2023/07/08 07:15:00;;;;;;;7.32;2.28;;;21.60;99.90;;;;;;4216701;28;20114;-88
2023/07/08 07:17:01;;;;;;;4.18;2.30;;;21.70;99.90;;;;;;4197567;28;20048;-88
2023/07/08 07:19:02;;;;;;;4.95;2.40;;;21.80;99.90;;;;;;4211661;28;20516;-88
2023/07/08 07:21:03;;;;;;;5.93;2.75;;;21.90;99.90;;;;;;4220750;28;20051;-88
2023/07/08 07:23:04;;;;;;;5.68;2.35;;;22.00;99.90;;;;;;4218286;28;20404;-88
2023/07/08 07:25:08;;;;;;;4.57;2.20;;;22.10;99.90;;;;;;4215881;28;20395;-89
2023/07/08 07:27:10;;;;;;;3.60;2.35;;;22.20;99.90;;;;;;4215732;28;20127;-89
2023/07/08 07:29:11;;;;;;;6.45;2.15;;;22.20;99.90;;;;;;4219481;28;20063;-88
2023/07/08 07:31:12;;;;;;;4.40;2.35;;;22.30;99.90;;;;;;4211991;28;20044;-88
2023/07/08 07:33:15;;;;;;;4.20;2.35;;;22.40;99.90;;;;;;4211696;28;20140;-87
2023/07/08 07:35:23;;;;;;;4.68;2.38;;;22.50;99.90;;;;;;4211992;28;20040;-87
2023/07/08 07:37:24;;;;;;;4.60;2.38;;;22.60;99.90;;;;;;4189564;28;20087;-88
2023/07/08 07:39:26;;;;;;;7.95;2.30;;;22.70;99.90;;;;;;4231197;28;20047;-88
2023/07/08 07:41:27;;;;;;;3.40;2.20;;;22.80;99.90;;;;;;4217798;28;20055;-88
2023/07/08 07:43:34;;;;;;;4.63;2.38;;;22.90;99.90;;;;;;4218750;28;20055;-89
2023/07/08 07:45:37;;;;;;;6.35;2.58;;;22.70;99.90;;;;;;4216527;28;20086;-88
2023/07/08 07:47:41;;;;;;;5.00;2.25;;;23.10;99.90;;;;;;4215443;28;20055;-88
2023/07/08 07:49:47;;;;;;;5.75;2.20;;;23.20;99.90;;;;;;4217651;28;20065;-89
2023/07/08 07:51:48;;;;;;;3.30;2.22;;;23.30;99.90;;;;;;4222186;28;20119;-89
2023/07/08 07:53:50;;;;;;;4.85;2.15;;;23.40;99.90;;;;;;4238059;28;20028;-88
2023/07/08 07:56:01;;;;;;;5.25;2.60;;;23.50;99.90;;;;;;4220773;28;20149;-89
2023/07/08 07:58:04;;;;;;;3.17;1.92;;;23.60;99.90;;;;;;4211468;28;20044;-88
2023/07/08 08:00:06;;;;;;;4.60;2.30;;;23.80;99.90;;;;;;4224902;28;20055;-89
2023/07/08 08:02:08;;;;;;;5.28;2.35;;;23.90;99.90;;;;;;4203215;28;20060;-88
2023/07/08 08:04:10;;;;;;;3.58;2.13;;;24.00;99.90;;;;;;4224330;28;20480;-88
2023/07/08 08:06:11;;;;;;;6.20;2.35;;;24.10;99.90;;;;;;4214976;28;20032;-89
2023/07/08 08:08:12;;;;;;;7.10;2.58;;;24.20;99.90;;;;;;4226462;28;20070;-88
2023/07/08 08:10:15;;;;;;;4.88;2.15;;;24.30;99.90;;;;;;4226855;28;20028;-88
2023/07/08 08:12:16;;;;;;;3.65;2.13;;;24.30;99.90;;;;;;4209612;28;20119;-88
2023/07/08 08:14:16;;;;;;;6.15;2.38;;;24.50;99.90;;;;;;4221600;28;20044;-88
2023/07/08 08:16:17;;;;;;;3.72;2.28;;;24.60;99.90;;;;;;4222308;28;20115;-87
2023/07/08 08:18:18;;;;;;;4.97;2.00;;;24.70;99.90;;;;;;4220282;28;20120;-90
2023/07/08 08:20:21;;;;;;;3.63;2.15;;;24.80;99.90;;;;;;4225192;28;20037;-89
2023/07/08 08:22:21;;;;;;;4.60;2.13;;;24.90;99.90;;;;;;4219447;28;20461;-88
2023/07/08 08:24:22;;;;;;;5.50;2.28;;;25.00;99.90;;;;;;4235261;28;20051;-89
2023/07/08 08:26:24;;;;;;;6.53;2.28;;;25.10;99.70;;;;;;4217296;28;20055;-89
2023/07/08 08:28:25;;;;;;;3.15;2.00;;;25.30;99.60;;;;;;4213958;28;20066;-87
2023/07/08 08:30:26;;;;;;;5.50;2.17;;;25.40;99.30;;;;;;4216433;28;20108;-89
2023/07/08 08:32:27;;;;;;;2.83;1.92;;;25.50;99.10;;;;;;4208179;28;20047;-89
2023/07/08 08:34:28;;;;;;;4.82;2.22;;;25.60;99.10;;;;;;4216812;28;20138;-88
2023/07/08 08:36:30;;;;;;;4.63;2.05;;;25.70;99.00;;;;;;4192900;28;20052;-89
2023/07/08 08:38:31;;;;;;;6.47;2.50;;;25.80;98.90;;;;;;4218815;28;20434;-89
2023/07/08 08:40:32;;;;;;;3.28;2.30;;;25.90;98.90;;;;;;4203756;28;20040;-88
2023/07/08 08:42:33;;;;;;;2.80;1.90;;;26.00;98.80;;;;;;4210080;28;20492;-87
2023/07/08 08:44:35;;;;;;;7.47;2.33;;;26.20;98.70;;;;;;4193004;28;20120;-88
2023/07/08 08:46:56;;;;;;;4.63;2.15;;;26.30;98.60;;;;;;4211517;28;20052;-89
2023/07/08 08:49:16;;;;;;;7.78;2.45;;;26.40;98.30;;;;;;4211862;28;20067;-88
2023/07/08 08:51:19;;;;;;;2.95;2.22;;;26.60;98.00;;;;;;4233038;28;20046;-89
2023/07/08 08:53:22;;;;;;;4.22;2.35;;;26.70;98.30;;;;;;4216771;28;20060;-88
2023/07/08 08:55:24;;;;;;;4.18;2.03;;;26.80;98.10;;;;;;4215060;28;20149;-88
2023/07/08 08:57:37;;;;;;;5.47;1.83;;;26.90;97.60;;;;;;4215239;28;20044;-90
2023/07/08 08:59:47;;;;;;;2.55;2.03;;;27.00;97.50;;;;;;4224357;27;20040;-88
2023/07/08 09:01:49;;;;;;;2.15;1.55;;;27.20;97.50;;;;;;4215806;28;20063;-88
2023/07/08 09:03:55;;;;;;;5.18;2.78;;;27.30;97.30;;;;;;4220959;28;20078;-89
2023/07/08 09:05:59;;;;;;;3.70;1.80;;;27.50;96.80;;;;;;4203388;28;20117;-88
2023/07/08 09:08:05;;;;;;;4.57;2.03;;;27.60;96.60;;;;;;4195180;28;20153;-88
2023/07/08 09:10:13;;;;;;;3.45;1.67;;;27.70;96.50;;;;;;4193910;28;20055;-87
2023/07/08 09:12:20;;;;;;;2.70;1.83;;;27.80;95.90;;;;;;4222448;28;20035;-88
2023/07/08 09:14:26;;;;;;;4.30;1.90;;;27.90;95.70;;;;;;4216164;28;20073;-89
2023/07/08 09:17:05;;;;;;;8.80;2.03;;;28.00;96.00;;;;;;4209371;28;20059;-89
2023/07/08 09:19:24;;;;;;;4.45;2.20;;;28.10;95.10;;;;;;4201645;28;20108;-88
2023/07/08 09:21:51;;;;;;;4.55;1.92;;;28.30;94.90;;;;;;4214677;28;20043;-88
2023/07/08 09:23:55;;;;;;;4.18;2.08;;;28.40;94.60;;;;;;4203730;28;20051;-89
2023/07/08 09:26:07;;;;;;;3.58;2.20;;;28.40;94.80;;;;;;4201136;28;20485;-88
2023/07/08 09:28:08;;;;;;;4.88;2.38;;;28.50;94.30;;;;;;4215981;28;20529;-86
2023/07/08 09:30:17;;;;;;;4.47;2.05;;;28.70;94.50;;;;;;4204532;28;20044;-85
2023/07/08 09:32:24;;;;;;;3.88;1.85;;;29.00;94.10;;;;;;4217014;28;20090;-86
2023/07/08 09:34:38;;;;;;;5.75;1.73;;;29.30;93.60;;;;;;4217335;28;20044;-85
2023/07/08 09:36:41;;;;;;;3.13;1.90;;;29.50;93.20;;;;;;4216700;28;20067;-85
2023/07/08 09:38:44;;;;;;;4.00;2.45;;;29.60;93.20;;;;;;4217149;28;20040;-85
2023/07/08 09:40:53;;;;;;;5.47;1.90;;;29.60;92.90;;;;;;4216962;28;20083;-85
2023/07/08 09:42:58;;;;;;;;;;;29.80;92.00;;;;;;4216692;28;20097;-86
2023/07/08 09:45:01;;;;;;;4.03;2.00;;;30.00;91.50;;;;;;4217248;28;19963;-86
2023/07/08 09:47:17;;;;;;;3.95;2.17;;;30.20;92.10;;;;;;4210039;28;20437;-85
2023/07/08 09:49:34;;;;;;;2.05;1.58;;;30.20;91.50;;;;;;4213975;28;20048;-86
2023/07/08 09:51:35;;;;;;;2.35;1.60;;;30.20;90.90;;;;;;4211661;28;20059;-86
2023/07/08 09:53:37;;;;;;;9.45;2.40;;;30.40;90.90;;;;;;4212870;28;20035;-86
2023/07/08 09:55:38;;;;;;;3.08;2.03;;;30.40;90.40;;;;;;4201248;28;20063;-86
2023/07/08 09:57:40;;;;;;;4.03;1.88;;;30.50;90.30;;;;;;4214241;28;20052;-86
2023/07/08 09:59:52;;;;;;;8.15;2.53;;;30.50;89.80;;;;;;4215464;28;20044;-86
2023/07/08 10:01:53;;;;;;;3.85;1.90;;;30.80;89.20;;;;;;4215873;28;20074;-86
2023/07/08 10:03:59;;;;;;;4.55;2.13;;;31.00;88.90;;;;;;4216174;28;20040;-86
2023/07/08 10:06:05;;;;;;;5.95;2.03;;;31.20;87.00;;;;;;4213965;28;20048;-86
2023/07/08 10:08:19;;;;;;;4.28;1.98;;;31.30;86.80;;;;;;4215445;28;20047;-84
2023/07/08 10:10:28;;;;;;;2.65;1.80;;;31.40;85.80;;;;;;4216079;28;20048;-85
2023/07/08 10:12:31;;;;;;;4.05;1.75;;;31.40;86.00;;;;;;4214282;28;20055;-86
2023/07/08 10:14:37;;;;;;;3.83;1.90;;;31.40;85.20;;;;;;4215105;28;20047;-85
2023/07/08 10:16:43;;;;;;;5.00;1.80;;;31.60;85.50;;;;;;4213828;28;20044;-85
2023/07/08 10:18:44;;;;;;;2.72;1.88;;;31.80;83.90;;;;;;4213465;28;20055;-85
2023/07/08 10:21:14;;;;;;;5.60;1.67;;;31.80;83.50;;;;;;4196844;28;20440;-85
2023/07/08 10:23:27;;;;;;;3.17;1.85;;;31.80;83.30;;;;;;4198083;28;20048;-85
2023/07/08 10:25:49;;;;;;;4.88;1.67;;;32.00;83.80;;;;;;4221049;28;20048;-85
2023/07/08 10:28:26;;;;;;;5.45;1.92;;;32.10;82.20;;;;;;4203988;28;20100;-85
2023/07/08 10:30:48;;;;;;;3.17;2.22;;;32.20;82.10;;;;;;4202301;28;20075;-85
2023/07/08 10:33:19;;;;;;;4.93;1.80;;;32.40;79.30;;;;;;4212897;28;20123;-85
2023/07/08 10:35:30;;;;;;;3.63;2.10;;;32.60;82.10;;;;;;4219104;28;20040;-85
2023/07/08 10:37:52;;;;;;;3.70;1.92;;;32.80;81.00;;;;;;4220537;28;20044;-86
2023/07/08 10:40:06;;;;;;;3.25;1.98;;;32.90;79.80;;;;;;4218413;28;20115;-86
2023/07/08 10:42:22;;;;;;;3.92;1.90;;;33.00;79.40;;;;;;4219436;28;20079;-85
2023/07/08 10:45:04;;;;;;;4.82;2.30;;;33.10;77.90;;;;;;4201855;28;20075;-85